Time;durP1;ratioP1;P1;durP2;ratioP2;P2;SDS_P1;SDS_P2;PMS_P1;PMS_P2;Temp;Humidity;BMP_temperature;BMP_pressure;BME280_temperature;BME280_humidity;BME280_pressure;Samples;Min_cycle;Max_cycle;Signal;HPM_P1;HPM_P2
2023/02/13 00:00:26;;;;;;;;;;;;;;;;;;1043797;28;19951;-78
2023/02/13 00:00:57;;;;;;;;;;;;;;;;;;1044073;28;19909;-78
2023/02/13 00:01:28;;;;;;;;;;;;;;;;;;1043998;28;19915;-78
2023/02/13 00:01:59;;;;;;;;;;;;;;;;;;1048437;28;19952;-78
2023/02/13 00:02:30;;;;;;;;;;;;;;;;;;1048198;28;19904;-77
2023/02/13 00:03:00;;;;;;;;;;;;;;;;;;1047967;28;19999;-78
2023/02/13 00:03:31;;;;;;;;;;;;;;;;;;1047938;28;19905;-78
2023/02/13 00:04:03;;;;;;;;;;;;;;;;;;1048124;28;19913;-78
2023/02/13 00:04:34;;;;;;;;;;;;;;;;;;1048117;28;19912;-78
2023/02/13 00:05:05;;;;;;;;;;;;;;;;;;1047975;28;20085;-78
2023/02/13 00:05:36;;;;;;;;;;;;;;;;;;1047990;28;19986;-78
2023/02/13 00:06:07;;;;;;;;;;;;;;;;;;1046380;28;19943;-79
2023/02/13 00:06:38;;;;;;;;;;;;;;;;;;1043628;28;19908;-78
2023/02/13 00:07:10;;;;;;;;;;;;;;;;;;1044054;28;19909;-78
2023/02/13 00:07:41;;;;;;;;;;;;;;;;;;1044211;28;19905;-79
2023/02/13 00:08:12;;;;;;;;;;;;;;;;;;1048718;28;19979;-78
2023/02/13 00:08:43;;;;;;;;;;;;;;;;;;1047865;28;19908;-79
2023/02/13 00:09:14;;;;;;;;;;;;;;;;;;1048272;28;20003;-78
2023/02/13 00:09:44;;;;;;;;;;;;;;;;;;1043742;28;19916;-78
2023/02/13 00:10:15;;;;;;;;;;;;;;;;;;1040215;28;19909;-78
2023/02/13 00:10:46;;;;;;;;;;;;;;;;;;1043819;28;20506;-78
2023/02/13 00:11:17;;;;;;;;;;;;;;;;;;1045953;28;19909;-78
2023/02/13 00:11:48;;;;;;;;;;;;;;;;;;1048097;28;20759;-79
2023/02/13 00:12:19;;;;;;;;;;;;;;;;;;1048124;28;20012;-79
2023/02/13 00:12:50;;;;;;;;;;;;;;;;;;1043631;28;20281;-78
2023/02/13 00:13:21;;;;;;;;;;;;;;;;;;1042117;28;19909;-77
2023/02/13 00:13:51;;;;;;;;;;;;;;;;;;1039835;28;19975;-78
2023/02/13 00:14:22;;;;;;;;;;;;;;;;;;1043946;28;20607;-77
2023/02/13 00:14:53;;;;;;;;;;;;;;;;;;1039821;28;19910;-77
2023/02/13 00:15:24;;;;;;;;;;;;;;;;;;1044103;28;19909;-78
2023/02/13 00:15:55;;;;;;;;;;;;;;;;;;1043536;28;20459;-77
2023/02/13 00:16:26;;;;;;;;;;;;;;;;;;1044107;28;19996;-77
2023/02/13 00:16:57;;;;;;;;;;;;;;;;;;1047883;28;19913;-78
2023/02/13 00:17:28;;;;;;;;;;;;;;;;;;1048341;28;19909;-78
2023/02/13 00:17:58;;;;;;;;;;;;;;;;;;1052457;28;20400;-78
2023/02/13 00:18:29;;;;;;;;;;;;;;;;;;1052381;28;20007;-78
2023/02/13 00:19:00;;;;;;;;;;;;;;;;;;1048082;28;20391;-78
2023/02/13 00:19:31;;;;;;;;;;;;;;;;;;1047957;28;19971;-78
2023/02/13 00:20:02;;;;;;;;;;;;;;;;;;1043773;28;19971;-78
2023/02/13 00:20:33;;;;;;;;;;;;;;;;;;1043785;28;19909;-78
2023/02/13 00:21:04;;;;;;;;;;;;;;;;;;1046802;28;19917;-78
2023/02/13 00:21:34;;;;;;;;;;;;;;;;;;1039688;28;20378;-78
2023/02/13 00:22:05;;;;;;;;;;;;;;;;;;1047078;28;19946;-78
2023/02/13 00:22:36;;;;;;;;;;;;;;;;;;1043680;28;20399;-78
2023/02/13 00:23:07;;;;;;;;;;;;;;;;;;1043819;28;19913;-77
2023/02/13 00:23:38;;;;;;;;;;;;;;;;;;1043625;28;19913;-78
2023/02/13 00:24:09;;;;;;;;;;;;;;;;;;1044159;28;19920;-78
2023/02/13 00:24:40;;;;;;;;;;;;;;;;;;1043836;28;20007;-77
2023/02/13 00:25:11;;;;;;;;;;;;;;;;;;1047973;28;19908;-77
2023/02/13 00:25:41;;;;;;;;;;;;;;;;;;1047869;28;20283;-77
2023/02/13 00:26:12;;;;;;;;;;;;;;;;;;1048326;28;19913;-78
2023/02/13 00:26:43;;;;;;;;;;;;;;;;;;1052220;28;19944;-78
2023/02/13 00:27:14;;;;;;;;;;;;;;;;;;1052423;28;20375;-77
2023/02/13 00:27:45;;;;;;;;;;;;;;;;;;1051688;28;19912;-78
2023/02/13 00:28:16;;;;;;;;;;;;;;;;;;1051228;28;19931;-77
2023/02/13 00:28:47;;;;;;;;;;;;;;;;;;1051994;28;19912;-76
2023/02/13 00:29:18;;;;;;;;;;;;;;;;;;1052604;28;19912;-77
2023/02/13 00:29:49;;;;;;;;;;;;;;;;;;1051072;28;19915;-78
2023/02/13 00:30:20;;;;;;;;;;;;;;;;;;1044671;28;19916;-78
2023/02/13 00:30:51;;;;;;;;;;;;;;;;;;1043412;28;19920;-78
2023/02/13 00:31:22;;;;;;;;;;;;;;;;;;1044073;28;19913;-77
2023/02/13 00:31:52;;;;;;;;;;;;;;;;;;1043852;28;19913;-78
2023/02/13 00:32:23;;;;;;;;;;;;;;;;;;1042089;28;20381;-77
2023/02/13 00:32:54;;;;;;;;;;;;;;;;;;1043554;28;20000;-77
2023/02/13 00:33:25;;;;;;;;;;;;;;;;;;1043989;28;20368;-78
2023/02/13 00:33:56;;;;;;;;;;;;;;;;;;1046138;28;19913;-77
2023/02/13 00:34:27;;;;;;;;;;;;;;;;;;1047884;28;19966;-78
2023/02/13 00:34:58;;;;;;;;;;;;;;;;;;1047644;28;19912;-79
2023/02/13 00:35:29;;;;;;;;;;;;;;;;;;1043842;28;20404;-78
2023/02/13 00:35:59;;;;;;;;;;;;;;;;;;1043629;28;20284;-78
2023/02/13 00:36:30;;;;;;;;;;;;;;;;;;1039992;28;20011;-78
2023/02/13 00:37:01;;;;;;;;;;;;;;;;;;1039671;28;19913;-77
2023/02/13 00:37:32;;;;;;;;;;;;;;;;;;1043944;28;20134;-77
2023/02/13 00:38:03;;;;;;;;;;;;;;;;;;1043780;28;19943;-77
2023/02/13 00:38:34;;;;;;;;;;;;;;;;;;1048165;28;19916;-77
2023/02/13 00:39:05;;;;;;;;;;;;;;;;;;1052224;28;19912;-77
2023/02/13 00:39:35;;;;;;;;;;;;;;;;;;1048908;28;19913;-78
2023/02/13 00:40:06;;;;;;;;;;;;;;;;;;1043699;28;20004;-78
2023/02/13 00:40:37;;;;;;;;;;;;;;;;;;1043824;28;19920;-77
2023/02/13 00:41:08;;;;;;;;;;;;;;;;;;1043741;28;19913;-78
2023/02/13 00:41:39;;;;;;;;;;;;;;;;;;1044020;28;20019;-77
2023/02/13 00:42:10;;;;;;;;;;;;;;;;;;1043934;28;20302;-77
2023/02/13 00:42:41;;;;;;;;;;;;;;;;;;1043481;28;19925;-78
2023/02/13 00:43:11;;;;;;;;;;;;;;;;;;1044007;28;20388;-77
2023/02/13 00:43:42;;;;;;;;;;;;;;;;;;1043785;28;19913;-77
2023/02/13 00:44:13;;;;;;;;;;;;;;;;;;1040415;28;19935;-77
2023/02/13 00:44:44;;;;;;;;;;;;;;;;;;1041893;28;19909;-77
2023/02/13 00:45:15;;;;;;;;;;;;;;;;;;1043915;28;20662;-77
2023/02/13 00:45:46;;;;;;;;;;;;;;;;;;1045538;28;19981;-77
2023/02/13 00:46:17;;;;;;;;;;;;;;;;;;1048053;28;19912;-77
2023/02/13 00:46:48;;;;;;;;;;;;;;;;;;1043481;28;19917;-77
2023/02/13 00:47:18;;;;;;;;;;;;;;;;;;1044085;28;20003;-77
2023/02/13 00:47:49;;;;;;;;;;;;;;;;;;1047697;28;20403;-78
2023/02/13 00:48:20;;;;;;;;;;;;;;;;;;1048273;28;20007;-77
2023/02/13 00:48:51;;;;;;;;;;;;;;;;;;1051919;28;19912;-77
2023/02/13 00:49:22;;;;;;;;;;;;;;;;;;1048005;28;20007;-78
2023/02/13 00:49:53;;;;;;;;;;;;;;;;;;1043429;28;19913;-77
2023/02/13 00:50:24;;;;;;;;;;;;;;;;;;1043798;28;19909;-78
2023/02/13 00:50:55;;;;;;;;;;;;;;;;;;1037859;28;20336;-78
2023/02/13 00:51:25;;;;;;;;;;;;;;;;;;1039801;28;19914;-77
2023/02/13 00:51:56;;;;;;;;;;;;;;;;;;1039229;28;20031;-77
2023/02/13 00:52:27;;;;;;;;;;;;;;;;;;1039486;28;19913;-77
2023/02/13 00:52:58;;;;;;;;;;;;;;;;;;1043484;28;19965;-77
2023/02/13 00:53:29;;;;;;;;;;;;;;;;;;1047925;28;19920;-77
2023/02/13 00:54:00;;;;;;;;;;;;;;;;;;1051939;28;20381;-78
2023/02/13 00:54:31;;;;;;;;;;;;;;;;;;1047626;28;19913;-79
2023/02/13 00:55:02;;;;;;;;;;;;;;;;;;1047325;28;19920;-79
2023/02/13 00:55:34;;;;;;;;;;;;;;;;;;1047725;28;19916;-78
2023/02/13 00:56:05;;;;;;;;;;;;;;;;;;1047446;28;20352;-78
2023/02/13 00:56:35;;;;;;;;;;;;;;;;;;1043809;28;20375;-78
2023/02/13 00:57:06;;;;;;;;;;;;;;;;;;1047407;28;19943;-78
2023/02/13 00:57:37;;;;;;;;;;;;;;;;;;1047644;28;20065;-78
2023/02/13 00:58:08;;;;;;;;;;;;;;;;;;1047458;28;19916;-78
2023/02/13 00:58:39;;;;;;;;;;;;;;;;;;1047877;28;19916;-78
2023/02/13 00:59:10;;;;;;;;;;;;;;;;;;1051264;28;20002;-78
2023/02/13 00:59:41;;;;;;;;;;;;;;;;;;1051471;28;19959;-78
2023/02/13 01:00:11;;;;;;;;;;;;;;;;;;1051633;28;19912;-78
2023/02/13 01:00:42;;;;;;;;;;;;;;;;;;1051943;28;19912;-78
2023/02/13 01:01:13;;;;;;;;;;;;;;;;;;1048427;28;19974;-78
2023/02/13 01:01:44;;;;;;;;;;;;;;;;;;1047210;28;19957;-78
2023/02/13 01:02:15;;;;;;;;;;;;;;;;;;1047614;28;19943;-78
2023/02/13 01:02:46;;;;;;;;;;;;;;;;;;1043400;28;19913;-78
2023/02/13 01:03:17;;;;;;;;;;;;;;;;;;1043470;28;19913;-78
2023/02/13 01:03:48;;;;;;;;;;;;;;;;;;1043455;28;19912;-78
2023/02/13 01:04:19;;;;;;;;;;;;;;;;;;1043710;28;19982;-78
2023/02/13 01:04:50;;;;;;;;;;;;;;;;;;1047872;28;19920;-78
2023/02/13 01:05:21;;;;;;;;;;;;;;;;;;1052095;28;19912;-78
2023/02/13 01:05:51;;;;;;;;;;;;;;;;;;1047415;28;20645;-78
2023/02/13 01:06:22;;;;;;;;;;;;;;;;;;1039683;28;19909;-78
2023/02/13 01:06:53;;;;;;;;;;;;;;;;;;1039197;28;19940;-78
2023/02/13 01:07:24;;;;;;;;;;;;;;;;;;1039376;28;20455;-78
2023/02/13 01:07:55;;;;;;;;;;;;;;;;;;1039457;28;19916;-78
2023/02/13 01:08:27;;;;;;;;;;;;;;;;;;1043470;28;20593;-78
2023/02/13 01:08:58;;;;;;;;;;;;;;;;;;1043746;28;19987;-78
2023/02/13 01:09:28;;;;;;;;;;;;;;;;;;1043403;28;19952;-78
2023/02/13 01:09:59;;;;;;;;;;;;;;;;;;1043590;28;19919;-78
2023/02/13 01:10:30;;;;;;;;;;;;;;;;;;1043402;28;19924;-78
2023/02/13 01:11:01;;;;;;;;;;;;;;;;;;1043293;28;19913;-78
2023/02/13 01:11:32;;;;;;;;;;;;;;;;;;1047928;28;19913;-78
2023/02/13 01:12:03;;;;;;;;;;;;;;;;;;1047298;28;20363;-78
2023/02/13 01:12:34;;;;;;;;;;;;;;;;;;1047309;28;19915;-78
2023/02/13 01:13:04;;;;;;;;;;;;;;;;;;1047312;28;20290;-77
2023/02/13 01:13:35;;;;;;;;;;;;;;;;;;1047891;28;19999;-78
2023/02/13 01:14:06;;;;;;;;;;;;;;;;;;1047359;28;19982;-78
2023/02/13 01:14:37;;;;;;;;;;;;;;;;;;1047637;28;19908;-78
2023/02/13 01:15:08;;;;;;;;;;;;;;;;;;1047342;28;20054;-78
2023/02/13 01:15:39;;;;;;;;;;;;;;;;;;1047729;28;19915;-78
2023/02/13 01:16:10;;;;;;;;;;;;;;;;;;1050418;28;19916;-78
2023/02/13 01:16:40;;;;;;;;;;;;;;;;;;1048153;28;20003;-78
2023/02/13 01:17:11;;;;;;;;;;;;;;;;;;1051679;28;19915;-78
2023/02/13 01:17:42;;;;;;;;;;;;;;;;;;1052231;28;20335;-78
2023/02/13 01:18:13;;;;;;;;;;;;;;;;;;1049682;28;20041;-78
2023/02/13 01:18:44;;;;;;;;;;;;;;;;;;1051324;28;20263;-78
2023/02/13 01:19:15;;;;;;;;;;;;;;;;;;1051923;28;20612;-78
2023/02/13 01:19:46;;;;;;;;;;;;;;;;;;1052137;28;19919;-78
2023/02/13 01:20:17;;;;;;;;;;;;;;;;;;1047163;28;20015;-78
2023/02/13 01:20:47;;;;;;;;;;;;;;;;;;1047191;28;19941;-78
2023/02/13 01:21:18;;;;;;;;;;;;;;;;;;1047661;28;19912;-78
2023/02/13 01:21:49;;;;;;;;;;;;;;;;;;1043698;28;20031;-78
2023/02/13 01:22:20;;;;;;;;;;;;;;;;;;1047735;28;19942;-78
2023/02/13 01:22:51;;;;;;;;;;;;;;;;;;1047923;28;19955;-78
2023/02/13 01:23:22;;;;;;;;;;;;;;;;;;1043864;28;19909;-78
2023/02/13 01:23:53;;;;;;;;;;;;;;;;;;1047630;28;19939;-77
2023/02/13 01:24:24;;;;;;;;;;;;;;;;;;1047822;28;19940;-78
2023/02/13 01:24:55;;;;;;;;;;;;;;;;;;1048074;28;19915;-77
2023/02/13 01:25:27;;;;;;;;;;;;;;;;;;1052053;28;19940;-77
2023/02/13 01:25:57;;;;;;;;;;;;;;;;;;1047629;28;19908;-77
2023/02/13 01:26:28;;;;;;;;;;;;;;;;;;1047709;28;19908;-77
2023/02/13 01:27:01;;;;;;;;;;;;;;;;;;1047739;28;19919;-77
2023/02/13 01:27:32;;;;;;;;;;;;;;;;;;1048258;28;20003;-77
2023/02/13 01:28:03;;;;;;;;;;;;;;;;;;1047581;28;19908;-77
2023/02/13 01:28:33;;;;;;;;;;;;;;;;;;1047524;28;19908;-77
2023/02/13 01:29:04;;;;;;;;;;;;;;;;;;1047771;28;19971;-77
2023/02/13 01:29:35;;;;;;;;;;;;;;;;;;1043749;28;19909;-77
2023/02/13 01:30:10;;;;;;;;;;;;;;;;;;1043625;28;19916;-78
2023/02/13 01:30:41;;;;;;;;;;;;;;;;;;1043369;28;19916;-77
2023/02/13 01:31:12;;;;;;;;;;;;;;;;;;1039999;28;19909;-77
2023/02/13 01:31:43;;;;;;;;;;;;;;;;;;1044268;28;19908;-77
2023/02/13 01:32:14;;;;;;;;;;;;;;;;;;1047589;28;19934;-77
2023/02/13 01:32:44;;;;;;;;;;;;;;;;;;1047744;28;19948;-77
2023/02/13 01:33:16;;;;;;;;;;;;;;;;;;1052048;28;19964;-77
2023/02/13 01:33:47;;;;;;;;;;;;;;;;;;1052009;28;19994;-78
2023/02/13 01:34:18;;;;;;;;;;;;;;;;;;1052199;28;19908;-78
2023/02/13 01:34:49;;;;;;;;;;;;;;;;;;1047484;28;19939;-78
2023/02/13 01:35:20;;;;;;;;;;;;;;;;;;1047715;28;19956;-78
2023/02/13 01:35:51;;;;;;;;;;;;;;;;;;1043336;28;19909;-78
2023/02/13 01:36:21;;;;;;;;;;;;;;;;;;1043708;28;19947;-78
2023/02/13 01:36:52;;;;;;;;;;;;;;;;;;1047693;28;20413;-77
2023/02/13 01:37:23;;;;;;;;;;;;;;;;;;1050800;28;20009;-77
2023/02/13 01:37:54;;;;;;;;;;;;;;;;;;1047618;28;19909;-78
2023/02/13 01:38:25;;;;;;;;;;;;;;;;;;1047772;28;19962;-77
2023/02/13 01:38:56;;;;;;;;;;;;;;;;;;1047530;28;19967;-78
2023/02/13 01:39:27;;;;;;;;;;;;;;;;;;1045395;28;19915;-78
2023/02/13 01:39:58;;;;;;;;;;;;;;;;;;1048102;28;19909;-78
2023/02/13 01:40:29;;;;;;;;;;;;;;;;;;1043888;28;20582;-78
2023/02/13 01:41:00;;;;;;;;;;;;;;;;;;1043616;28;19975;-78
2023/02/13 01:41:31;;;;;;;;;;;;;;;;;;1043517;28;19951;-78
2023/02/13 01:42:01;;;;;;;;;;;;;;;;;;1043890;28;19950;-78
2023/02/13 01:42:32;;;;;;;;;;;;;;;;;;1047635;28;19913;-77
2023/02/13 01:43:03;;;;;;;;;;;;;;;;;;1052438;28;19954;-77
2023/02/13 01:43:34;;;;;;;;;;;;;;;;;;1047406;28;19962;-77
2023/02/13 01:44:05;;;;;;;;;;;;;;;;;;1047696;28;19916;-77
2023/02/13 01:44:36;;;;;;;;;;;;;;;;;;1047574;28;19978;-78
2023/02/13 01:45:07;;;;;;;;;;;;;;;;;;1047805;28;19960;-76
2023/02/13 01:45:37;;;;;;;;;;;;;;;;;;1043386;28;19919;-77
2023/02/13 01:46:10;;;;;;;;;;;;;;;;;;1043713;28;20011;-78
2023/02/13 01:46:41;;;;;;;;;;;;;;;;;;1043444;28;20624;-77
2023/02/13 01:47:12;;;;;;;;;;;;;;;;;;1039501;28;19909;-78
2023/02/13 01:47:43;;;;;;;;;;;;;;;;;;1043704;28;19974;-78
2023/02/13 01:48:14;;;;;;;;;;;;;;;;;;1039637;28;20039;-78
2023/02/13 01:48:45;;;;;;;;;;;;;;;;;;1035361;28;19971;-78
2023/02/13 01:49:17;;;;;;;;;;;;;;;;;;1038372;28;19917;-77
2023/02/13 01:49:48;;;;;;;;;;;;;;;;;;1042864;28;20012;-78
2023/02/13 01:50:19;;;;;;;;;;;;;;;;;;1044255;28;19920;-78
2023/02/13 01:50:49;;;;;;;;;;;;;;;;;;1046493;28;19959;-77
2023/02/13 01:51:20;;;;;;;;;;;;;;;;;;1048147;28;19916;-78
2023/02/13 01:51:51;;;;;;;;;;;;;;;;;;1043374;28;20380;-79
2023/02/13 01:52:22;;;;;;;;;;;;;;;;;;1043885;28;19913;-77
2023/02/13 01:52:53;;;;;;;;;;;;;;;;;;1047461;28;20531;-77
2023/02/13 01:53:24;;;;;;;;;;;;;;;;;;1047831;28;20310;-78
2023/02/13 01:53:55;;;;;;;;;;;;;;;;;;1043551;28;20003;-78
2023/02/13 01:54:29;;;;;;;;;;;;;;;;;;1046770;28;19913;-78
2023/02/13 01:55:00;;;;;;;;;;;;;;;;;;1039183;28;19965;-77
2023/02/13 01:55:31;;;;;;;;;;;;;;;;;;1036180;28;20004;-77
2023/02/13 01:56:02;;;;;;;;;;;;;;;;;;1042300;28;20172;-77
2023/02/13 01:56:33;;;;;;;;;;;;;;;;;;1047831;28;19912;-78
2023/02/13 01:57:04;;;;;;;;;;;;;;;;;;1043508;28;20451;-78
2023/02/13 01:57:35;;;;;;;;;;;;;;;;;;1043315;28;20488;-77
2023/02/13 01:58:05;;;;;;;;;;;;;;;;;;1043494;28;19947;-77
2023/02/13 01:58:36;;;;;;;;;;;;;;;;;;1039619;28;19913;-77
2023/02/13 01:59:07;;;;;;;;;;;;;;;;;;1039416;28;20013;-78
2023/02/13 01:59:38;;;;;;;;;;;;;;;;;;1043621;28;19913;-77
2023/02/13 02:00:09;;;;;;;;;;;;;;;;;;1043487;28;19913;-78
2023/02/13 02:00:40;;;;;;;;;;;;;;;;;;1047846;28;20042;-77
2023/02/13 02:01:11;;;;;;;;;;;;;;;;;;1047652;28;19923;-77
2023/02/13 02:01:41;;;;;;;;;;;;;;;;;;1047672;28;19917;-77
2023/02/13 02:02:12;;;;;;;;;;;;;;;;;;1043443;28;20726;-78
2023/02/13 02:02:43;;;;;;;;;;;;;;;;;;1043406;28;19917;-78
2023/02/13 02:03:14;;;;;;;;;;;;;;;;;;1043545;28;19967;-77
2023/02/13 02:03:45;;;;;;;;;;;;;;;;;;1043600;28;19940;-77
2023/02/13 02:04:16;;;;;;;;;;;;;;;;;;1039295;28;19913;-77
2023/02/13 02:04:47;;;;;;;;;;;;;;;;;;1039455;28;19924;-78
2023/02/13 02:05:17;;;;;;;;;;;;;;;;;;1039332;28;19920;-77
2023/02/13 02:05:48;;;;;;;;;;;;;;;;;;1035545;28;20016;-77
2023/02/13 02:06:19;;;;;;;;;;;;;;;;;;1042421;28;19921;-77
2023/02/13 02:06:50;;;;;;;;;;;;;;;;;;1043740;28;20486;-77
2023/02/13 02:07:21;;;;;;;;;;;;;;;;;;1043755;28;19912;-78
2023/02/13 02:07:52;;;;;;;;;;;;;;;;;;1047544;28;19912;-77
2023/02/13 02:08:23;;;;;;;;;;;;;;;;;;1047809;28;20379;-77
2023/02/13 02:08:54;;;;;;;;;;;;;;;;;;1043702;28;19956;-78
2023/02/13 02:09:24;;;;;;;;;;;;;;;;;;1047639;28;19912;-77
2023/02/13 02:09:55;;;;;;;;;;;;;;;;;;1043370;28;20015;-77
2023/02/13 02:10:27;;;;;;;;;;;;;;;;;;1043871;28;19967;-77
2023/02/13 02:10:57;;;;;;;;;;;;;;;;;;1047603;28;19908;-77
2023/02/13 02:11:28;;;;;;;;;;;;;;;;;;1047976;28;19921;-77
2023/02/13 02:11:59;;;;;;;;;;;;;;;;;;1051963;28;19919;-77
2023/02/13 02:12:30;;;;;;;;;;;;;;;;;;1052245;28;19915;-78
2023/02/13 02:13:01;;;;;;;;;;;;;;;;;;1047268;28;19999;-78
2023/02/13 02:13:32;;;;;;;;;;;;;;;;;;1047555;28;19912;-77
2023/02/13 02:14:03;;;;;;;;;;;;;;;;;;1043124;28;19920;-77
2023/02/13 02:14:33;;;;;;;;;;;;;;;;;;1043700;28;20039;-78
2023/02/13 02:15:04;;;;;;;;;;;;;;;;;;1039238;28;19990;-77
2023/02/13 02:15:35;;;;;;;;;;;;;;;;;;1039638;28;20396;-77
2023/02/13 02:16:06;;;;;;;;;;;;;;;;;;1043505;28;19964;-77
2023/02/13 02:16:37;;;;;;;;;;;;;;;;;;1043847;28;20054;-77
2023/02/13 02:17:08;;;;;;;;;;;;;;;;;;1039415;28;20419;-77
2023/02/13 02:17:39;;;;;;;;;;;;;;;;;;1043660;28;20000;-77
2023/02/13 02:18:10;;;;;;;;;;;;;;;;;;1043431;28;20352;-77
2023/02/13 02:18:44;;;;;;;;;;;;;;;;;;1046947;28;19920;-77
2023/02/13 02:19:14;;;;;;;;;;;;;;;;;;1051483;28;19915;-77
2023/02/13 02:19:45;;;;;;;;;;;;;;;;;;1044524;28;19963;-77
2023/02/13 02:20:16;;;;;;;;;;;;;;;;;;1045411;28;19960;-78
2023/02/13 02:20:47;;;;;;;;;;;;;;;;;;1047254;28;20649;-77
2023/02/13 02:21:18;;;;;;;;;;;;;;;;;;1047150;28;19920;-77
2023/02/13 02:21:49;;;;;;;;;;;;;;;;;;1048669;28;19917;-77
2023/02/13 02:22:20;;;;;;;;;;;;;;;;;;1052019;28;19995;-77
2023/02/13 02:22:51;;;;;;;;;;;;;;;;;;1052080;28;19916;-77
2023/02/13 02:23:21;;;;;;;;;;;;;;;;;;1047508;28;19913;-77
2023/02/13 02:23:52;;;;;;;;;;;;;;;;;;1047602;28;19970;-77
2023/02/13 02:24:23;;;;;;;;;;;;;;;;;;1047397;28;19920;-77
2023/02/13 02:24:54;;;;;;;;;;;;;;;;;;1048121;28;19947;-78
2023/02/13 02:25:25;;;;;;;;;;;;;;;;;;1048412;28;19912;-77
2023/02/13 02:25:56;;;;;;;;;;;;;;;;;;1052591;28;20428;-77
2023/02/13 02:26:27;;;;;;;;;;;;;;;;;;1052916;28;19912;-78
2023/02/13 02:26:58;;;;;;;;;;;;;;;;;;1052826;28;19919;-78
2023/02/13 02:27:28;;;;;;;;;;;;;;;;;;1048427;28;19952;-78
2023/02/13 02:27:59;;;;;;;;;;;;;;;;;;1044236;28;19912;-78
2023/02/13 02:28:30;;;;;;;;;;;;;;;;;;1044098;28;19948;-78
2023/02/13 02:29:01;;;;;;;;;;;;;;;;;;1044788;28;19958;-78
2023/02/13 02:29:32;;;;;;;;;;;;;;;;;;1048728;28;19912;-78
2023/02/13 02:30:03;;;;;;;;;;;;;;;;;;1052843;28;19953;-78
2023/02/13 02:30:34;;;;;;;;;;;;;;;;;;1052854;28;19916;-78
2023/02/13 02:31:04;;;;;;;;;;;;;;;;;;1052859;28;20369;-77
2023/02/13 02:31:35;;;;;;;;;;;;;;;;;;1048460;28;19927;-77
2023/02/13 02:32:06;;;;;;;;;;;;;;;;;;1045567;28;19946;-77
2023/02/13 02:32:37;;;;;;;;;;;;;;;;;;1048408;28;20371;-77
2023/02/13 02:33:08;;;;;;;;;;;;;;;;;;1044205;28;20784;-77
2023/02/13 02:33:39;;;;;;;;;;;;;;;;;;1040129;28;19920;-78
2023/02/13 02:34:10;;;;;;;;;;;;;;;;;;1040031;28;19913;-77
2023/02/13 02:34:41;;;;;;;;;;;;;;;;;;1040396;28;19967;-77
2023/02/13 02:35:12;;;;;;;;;;;;;;;;;;1044598;28;19913;-77
2023/02/13 02:35:43;;;;;;;;;;;;;;;;;;1045453;28;19909;-77
2023/02/13 02:36:13;;;;;;;;;;;;;;;;;;1044110;28;20494;-77
2023/02/13 02:36:44;;;;;;;;;;;;;;;;;;1040196;28;19917;-77
2023/02/13 02:37:15;;;;;;;;;;;;;;;;;;1043726;28;20291;-77
2023/02/13 02:37:46;;;;;;;;;;;;;;;;;;1048509;28;19944;-77
2023/02/13 02:38:17;;;;;;;;;;;;;;;;;;1043947;28;19951;-77
2023/02/13 02:38:48;;;;;;;;;;;;;;;;;;1040332;28;19920;-77
2023/02/13 02:39:19;;;;;;;;;;;;;;;;;;1044227;28;19913;-77
2023/02/13 02:39:50;;;;;;;;;;;;;;;;;;1040468;28;20568;-77
2023/02/13 02:40:20;;;;;;;;;;;;;;;;;;1044403;28;20091;-77
2023/02/13 02:40:53;;;;;;;;;;;;;;;;;;1043943;28;20366;-78
2023/02/13 02:41:42;;;;;;;;;;;;;;;;;;1044559;28;19913;-78
2023/02/13 02:42:13;;;;;;;;;;;;;;;;;;1043873;28;19913;-77
2023/02/13 02:42:44;;;;;;;;;;;;;;;;;;1044174;28;20023;-77
2023/02/13 02:43:15;;;;;;;;;;;;;;;;;;1044062;28;19920;-77
2023/02/13 02:43:46;;;;;;;;;;;;;;;;;;1045272;28;19921;-77
2023/02/13 02:44:17;;;;;;;;;;;;;;;;;;1052306;28;20003;-77
2023/02/13 02:44:48;;;;;;;;;;;;;;;;;;1052867;28;20359;-78
2023/02/13 02:45:19;;;;;;;;;;;;;;;;;;1052805;28;19914;-77
2023/02/13 02:45:49;;;;;;;;;;;;;;;;;;1048029;28;19912;-77
2023/02/13 02:46:20;;;;;;;;;;;;;;;;;;1048441;28;19912;-77
2023/02/13 02:49:57;;;;;;;;;;;;;;;;;;1048379;28;19948;-78
2023/02/13 02:50:11;;;;;;;;;;;;;;;;;;1053062;28;19919;-78
2023/02/13 02:50:42;;;;;;;;;;;;;;;;;;1052765;28;19908;-78
2023/02/13 02:51:13;;;;;;;;;;;;;;;;;;1048773;28;20324;-77
2023/02/13 02:51:44;;;;;;;;;;;;;;;;;;1043999;28;19996;-78
2023/02/13 02:52:15;;;;;;;;;;;;;;;;;;1044382;28;19923;-78
2023/02/13 02:52:46;;;;;;;;;;;;;;;;;;1043983;28;19909;-77
2023/02/13 02:53:16;;;;;;;;;;;;;;;;;;1040311;28;19913;-77
2023/02/13 02:53:47;;;;;;;;;;;;;;;;;;1044052;28;20004;-77
2023/02/13 02:55:08;;;;;;;;;;;;;;;;;;1048372;28;19995;-77
2023/02/13 02:55:39;;;;;;;;;;;;;;;;;;1048634;28;19912;-77
2023/02/13 02:56:09;;;;;;;;;;;;;;;;;;1047452;28;19912;-77
2023/02/13 02:56:40;;;;;;;;;;;;;;;;;;1044189;28;20015;-77
2023/02/13 02:57:11;;;;;;;;;;;;;;;;;;1044132;28;19920;-77
2023/02/13 03:06:12;;;;;;;;;;;;;;;;;;1052465;28;20004;-77
2023/02/13 03:06:43;;;;;;;;;;;;;;;;;;1048153;28;19913;-77
2023/02/13 03:07:14;;;;;;;;;;;;;;;;;;1048388;28;19920;-77
2023/02/13 03:07:45;;;;;;;;;;;;;;;;;;1043977;28;19995;-77
2023/02/13 03:13:17;;;;;;;;;;;;;;;;;;1044555;28;20406;-77
2023/02/13 03:13:22;;;;;;;;;;;;;;;;;;1046705;28;20004;-78
2023/02/13 03:13:53;;;;;;;;;;;;;;;;;;1047899;28;20019;-77
2023/02/13 03:14:24;;;;;;;;;;;;;;;;;;1048422;28;19917;-78
2023/02/13 03:14:54;;;;;;;;;;;;;;;;;;1048030;28;20402;-78
2023/02/13 03:15:25;;;;;;;;;;;;;;;;;;1048323;28;19913;-77
2023/02/13 03:22:41;;;;;;;;;;;;;;;;;;1052951;28;20298;-78
2023/02/13 03:23:15;;;;;;;;;;;;;;;;;;1047905;28;20413;-78
2023/02/13 03:23:46;;;;;;;;;;;;;;;;;;1048215;28;19916;-77
2023/02/13 03:24:17;;;;;;;;;;;;;;;;;;1048015;28;19991;-77
2023/02/13 03:24:47;;;;;;;;;;;;;;;;;;1049079;28;20271;-77
2023/02/13 03:25:29;;;;;;;;;;;;;;;;;;1047990;28;19920;-78
2023/02/13 03:26:00;;;;;;;;;;;;;;;;;;1048199;28;19908;-78
2023/02/13 03:26:44;;;;;;;;;;;;;;;;;;1048094;28;19962;-78
2023/02/13 03:27:15;;;;;;;;;;;;;;;;;;1051996;28;19962;-78
2023/02/13 03:30:15;;;;;;;;;;;;;;;;;;1053031;28;19915;-78
2023/02/13 03:30:46;;;;;;;;;;;;;;;;;;1052573;28;20003;-78
2023/02/13 03:31:17;;;;;;;;;;;;;;;;;;1048261;28;19916;-78
2023/02/13 03:31:48;;;;;;;;;;;;;;;;;;1048083;28;19913;-79
2023/02/13 03:32:19;;;;;;;;;;;;;;;;;;1048127;28;19912;-78
2023/02/13 03:32:50;;;;;;;;;;;;;;;;;;1048404;28;19912;-78
2023/02/13 03:33:21;;;;;;;;;;;;;;;;;;1048336;28;20317;-78
2023/02/13 03:33:51;;;;;;;;;;;;;;;;;;1047947;28;19940;-78
2023/02/13 03:34:22;;;;;;;;;;;;;;;;;;1048515;28;20663;-78
2023/02/13 03:38:12;;;;;;;;;;;;;;;;;;1052671;28;20394;-78
2023/02/13 03:38:43;;;;;;;;;;;;;;;;;;1052659;28;20367;-77
2023/02/13 03:39:14;;;;;;;;;;;;;;;;;;1051904;28;20002;-77
2023/02/13 03:39:45;;;;;;;;;;;;;;;;;;1049292;28;19919;-77
2023/02/13 03:40:15;;;;;;;;;;;;;;;;;;1050109;28;19920;-78
2023/02/13 03:41:36;;;;;;;;;;;;;;;;;;1048389;28;19915;-78
2023/02/13 03:42:07;;;;;;;;;;;;;;;;;;1047975;28;19913;-77
2023/02/13 03:42:38;;;;;;;;;;;;;;;;;;1051043;28;19924;-77
2023/02/13 03:43:09;;;;;;;;;;;;;;;;;;1052482;28;19908;-78
2023/02/13 03:43:39;;;;;;;;;;;;;;;;;;1048015;28;20319;-79
2023/02/13 03:44:10;;;;;;;;;;;;;;;;;;1047966;28;19909;-78
2023/02/13 03:44:41;;;;;;;;;;;;;;;;;;1044965;28;20516;-78
2023/02/13 03:46:01;;;;;;;;;;;;;;;;;;1044214;28;19924;-78
2023/02/13 03:46:32;;;;;;;;;;;;;;;;;;1048108;28;19934;-78
2023/02/13 03:47:04;;;;;;;;;;;;;;;;;;1051061;28;20672;-78
2023/02/13 03:47:35;;;;;;;;;;;;;;;;;;1052250;28;19939;-77
2023/02/13 03:48:08;;;;;;;;;;;;;;;;;;1047894;28;19909;-77
2023/02/13 03:50:18;;;;;;;;;;;;;;;;;;1049377;28;20325;-77
2023/02/13 03:50:49;;;;;;;;;;;;;;;;;;1052519;28;20466;-79
2023/02/13 03:51:20;;;;;;;;;;;;;;;;;;1051149;28;20006;-78
2023/02/13 03:51:51;;;;;;;;;;;;;;;;;;1052534;28;20505;-77
2023/02/13 03:52:21;;;;;;;;;;;;;;;;;;1052936;28;19908;-77
2023/02/13 03:52:52;;;;;;;;;;;;;;;;;;1047501;28;19909;-77
2023/02/13 03:53:23;;;;;;;;;;;;;;;;;;1048186;28;19942;-77
2023/02/13 03:53:54;;;;;;;;;;;;;;;;;;1043676;28;19909;-77
2023/02/13 03:59:23;;;;;;;;;;;;;;;;;;1048513;28;19955;-78
2023/02/13 03:59:54;;;;;;;;;;;;;;;;;;1050150;28;19908;-78
2023/02/13 04:00:25;;;;;;;;;;;;;;;;;;1052724;28;19915;-78
2023/02/13 04:00:55;;;;;;;;;;;;;;;;;;1047882;28;19909;-77
2023/02/13 04:01:26;;;;;;;;;;;;;;;;;;1048068;28;19954;-78
2023/02/13 04:01:57;;;;;;;;;;;;;;;;;;1047986;28;19909;-77
2023/02/13 04:02:28;;;;;;;;;;;;;;;;;;1048220;28;19909;-78
2023/02/13 04:02:59;;;;;;;;;;;;;;;;;;1047999;28;20003;-78
2023/02/13 04:03:30;;;;;;;;;;;;;;;;;;1044268;28;19963;-78
2023/02/13 04:04:01;;;;;;;;;;;;;;;;;;1043922;28;20347;-77
2023/02/13 04:04:31;;;;;;;;;;;;;;;;;;1044092;28;19912;-78
2023/02/13 04:05:02;;;;;;;;;;;;;;;;;;1046217;28;20280;-78
2023/02/13 04:05:33;;;;;;;;;;;;;;;;;;1043838;28;19912;-77
2023/02/13 04:06:04;;;;;;;;;;;;;;;;;;1039316;28;20714;-77
2023/02/13 04:06:35;;;;;;;;;;;;;;;;;;1039647;28;19913;-77
2023/02/13 04:07:06;;;;;;;;;;;;;;;;;;1035845;28;19917;-78
2023/02/13 04:07:37;;;;;;;;;;;;;;;;;;1039786;28;20249;-78
2023/02/13 04:08:08;;;;;;;;;;;;;;;;;;1047512;28;19946;-78
2023/02/13 04:08:38;;;;;;;;;;;;;;;;;;1048121;28;20346;-78
2023/02/13 04:09:09;;;;;;;;;;;;;;;;;;1048071;28;20733;-78
2023/02/13 04:09:40;;;;;;;;;;;;;;;;;;1048150;28;19912;-78